Pagina principale
METAR-TAF:

METAR-TAF

Aeroporti :

Aeroporto di Quimper Bretagne

Quimper, Francia

latitudine: 47-58N, longitudine: 004-10W, altezza: 92 m

Osservazione

Il bollettino è stato emesso 48 minuti fa, alle 00:00 UTC
Vento 6 kt da est/nord-est, variando fra nord/nord-est e est
Temperature 16°C
Umidità 68%
Pressione 1016 hPa
Visibilità 10 km o più
nessuna nube inferiore a 1500 m e nessun cumulonembo

METAR: LFRQ 310000Z AUTO 06006KT 030V090 CAVOK 16/10 Q1016

Ora: 02:48 (00:48 UTC)


TAF: mancante

Osservazioni e previsioni meteorologiche di più di 4000 aeroporti (messaggi METAR e TAF).

Le stazioni disponibili sono rappresentate dai dischi gialli e rossi sulla carta.

Puntare il mouse per vedere il nome della stazione.

Clicca sopra per visualizzare le osservazioni e previsioni meteorologiche.

Per cambiare la mappa : fare clic sui pulsanti verdi con una croce nera per ingrandire, il pulsante verde con un trattino per diminuire, o sulla freccia verde per le mappe adiacenti.


METAR-TAF: